Tindbinbilla Nature Rese, Australia

1:23 AM AEDT on March 29, 2017 (GMT +1100)
Kambah west | | Change Station

Elev 2014 ft 35.39 °S, 149.05 °E | Updated 1 minute ago

Clear
Clear
52.2 °F
Feels Like 52.2 °F
N
0.0
Wind Variable Wind from SW

Today
High -- | Low -- °F
--% Chance of Precip.
Yesterday
High -- | Low -- °F
Precip. -- in
Pressure 29.95 in
Visibility 6.2 miles
Clouds
Dew Point 52 °F
Humidity 98%
Rainfall 0.00 in
Snow Depth Not available.
7:14 AM 7:03 PM
New Moon, 0% visible
METAR YSCB 281400Z AUTO 06004KT 9999 // NCD 13/12 Q1014
Pressure 29.95 in
Visibility 6.2 miles
Clouds
Dew Point 52 °F
Humidity 98%
Rainfall 0.00 in
Snow Depth Not available.
7:14 AM 7:03 PM
New Moon, 0% visible
METAR YSCB 281400Z AUTO 06004KT 9999 // NCD 13/12 Q1014

Get Severe Weather Alerts

Thanks for signing up!

Be on the lookout for a verification email in your inbox.

You'll start receiving the daily forecast at 8 AM.

×

10-Day Weather Forecast

×

Almanac

Astronomy

Mar. 29, 2017 Rise Set
Actual Time
Civil Twilight
Nautical Twilight
Astronomical Twilight
Moon
Length of Visible Light
Length of Day
Tomorrow will be .
, % of the Moon is Illuminated

Today's Extremes

Country Highs Country Lows

Community

WunderPhotos

Upload Photos

1,962,540 photos uploaded!

WunderBlog® & News

Nearby

Air Quality

  Air Quality AQ Index Pollutant
Not available.

Snow Depth

Station Depth Elevation

Earthquake Activity

City Distance Mag. Time & Date
Minimum magnitude displayed is 2.5.

Earthquake Activity

City Distance Mag. Time & Date
Minimum magnitude displayed is 2.5.

Coastal Water Temperatures

Place Temperature

Stations

Nearby Weather Stations

Station Location Temp. Windchill Dew Point Humidity Wind Precip. Elev Updated Type